createdAt,value
2018-11-04T00:00:02.771Z,101259.91
2018-11-04T00:05:00.101Z,101257.09
2018-11-04T00:09:58.856Z,101255.83
2018-11-04T00:14:56.311Z,101245.41
2018-11-04T00:19:54.853Z,101238.27
2018-11-04T00:24:52.349Z,101239.02
2018-11-04T00:29:49.977Z,101231.31
2018-11-04T00:34:47.363Z,101222.84
2018-11-04T00:39:44.790Z,101225.12
2018-11-04T00:44:42.240Z,101222.51
2018-11-04T00:49:39.664Z,101223.94
2018-11-04T00:54:37.102Z,101211.22
2018-11-04T00:59:34.535Z,101211.56
2018-11-04T01:04:31.952Z,101204.97
2018-11-04T01:09:32.392Z,101198.06
2018-11-04T01:14:29.909Z,101195.38
2018-11-04T01:19:27.328Z,101185.89
2018-11-04T01:24:24.831Z,101173.46
2018-11-04T01:29:22.192Z,101167.11
2018-11-04T01:34:19.644Z,101156.34
2018-11-04T01:39:17.063Z,101150.14
2018-11-04T01:44:14.496Z,101134.77
2018-11-04T01:49:11.969Z,101131.23
2018-11-04T01:54:09.398Z,101125.09
2018-11-04T01:59:06.894Z,101117.30
2018-11-04T02:04:04.604Z,101105.28
2018-11-04T02:09:02.122Z,101099.53
2018-11-04T02:13:59.546Z,101079.50
2018-11-04T02:18:57.009Z,101078.80
2018-11-04T02:23:54.428Z,101076.17
2018-11-04T02:28:51.851Z,101069.72
2018-11-04T02:33:49.292Z,101061.33
2018-11-04T02:38:46.708Z,101056.28
2018-11-04T02:43:44.121Z,101049.78
2018-11-04T02:48:41.543Z,101057.42
2018-11-04T02:53:38.977Z,101045.39
2018-11-04T02:58:36.421Z,101041.70
2018-11-04T03:03:33.848Z,101039.81
2018-11-04T03:08:31.273Z,101028.85
2018-11-04T03:13:28.756Z,101020.17
2018-11-04T03:18:26.198Z,101013.47
2018-11-04T03:23:23.640Z,100997.46
2018-11-04T03:28:21.102Z,101000.55
2018-11-04T03:33:18.536Z,100992.47
2018-11-04T03:38:15.968Z,100991.59
2018-11-04T03:43:13.408Z,100978.70
2018-11-04T03:48:10.845Z,100979.58
2018-11-04T03:53:08.307Z,100980.35
2018-11-04T03:58:05.742Z,100972.91
2018-11-04T04:03:03.186Z,100972.22
2018-11-04T04:08:00.608Z,100966.28
2018-11-04T04:12:58.074Z,100965.01
2018-11-04T04:17:55.510Z,100958.13
2018-11-04T04:22:52.950Z,100964.92
2018-11-04T04:27:50.397Z,100955.52
2018-11-04T04:32:47.833Z,100961.73
2018-11-04T04:37:45.292Z,100962.56
2018-11-04T04:42:42.721Z,100957.86
2018-11-04T04:47:40.148Z,100950.49
2018-11-04T04:52:37.581Z,100945.04
2018-11-04T04:57:35.016Z,100937.19
2018-11-04T05:02:32.456Z,100931.89
2018-11-04T05:07:29.893Z,100928.92
2018-11-04T05:12:27.402Z,100924.55
2018-11-04T05:17:24.856Z,100920.50
2018-11-04T05:22:22.345Z,100917.70
2018-11-04T05:27:19.776Z,100919.95
2018-11-04T05:32:17.209Z,100922.78
2018-11-04T05:37:14.693Z,100922.39
2018-11-04T05:42:12.131Z,100916.41
2018-11-04T05:47:09.605Z,100917.39
2018-11-04T05:52:07.094Z,100925.00
2018-11-04T05:57:05.233Z,100915.84
2018-11-04T06:02:02.692Z,100913.86
2018-11-04T06:07:00.313Z,100910.69
2018-11-04T06:11:58.250Z,100911.40
2018-11-04T06:16:56.666Z,100914.23
2018-11-04T06:21:54.139Z,100911.06
2018-11-04T06:26:51.612Z,100914.92
2018-11-04T06:31:49.076Z,100916.36
2018-11-04T06:36:46.540Z,100917.59
2018-11-04T06:41:43.996Z,100915.88
2018-11-04T06:46:42.627Z,100908.35
2018-11-04T06:51:40.091Z,100901.50
2018-11-04T06:56:37.590Z,100906.08
2018-11-04T07:01:35.053Z,100908.01
2018-11-04T07:06:32.520Z,100902.77
2018-11-04T07:11:30.005Z,100906.33
2018-11-04T07:16:32.111Z,100902.66
2018-11-04T07:21:29.555Z,100904.34
2018-11-04T07:26:27.023Z,100890.41
2018-11-04T07:31:24.558Z,100892.69
2018-11-04T07:36:22.058Z,100901.45
2018-11-04T07:41:19.980Z,100890.09
2018-11-04T07:46:23.271Z,100887.19
2018-11-04T07:51:20.774Z,100887.03
2018-11-04T07:56:18.205Z,100877.61
2018-11-04T08:01:15.759Z,100871.97
2018-11-04T08:06:13.202Z,100871.58
2018-11-04T08:11:10.693Z,100869.80
2018-11-04T08:16:12.974Z,100864.58
2018-11-04T08:21:10.416Z,100861.29
2018-11-04T08:26:07.914Z,100849.34
2018-11-04T08:31:05.569Z,100858.08
2018-11-04T08:36:03.040Z,100850.15
2018-11-04T08:41:00.520Z,100849.02
2018-11-04T08:46:09.631Z,100839.95
2018-11-04T08:51:07.483Z,100836.23
2018-11-04T08:56:05.220Z,100826.64
2018-11-04T09:01:02.671Z,100829.25
2018-11-04T09:06:00.173Z,100823.81
2018-11-04T09:10:57.614Z,100817.75
2018-11-04T09:16:02.884Z,100815.48
2018-11-04T09:21:00.495Z,100812.84
2018-11-04T09:25:57.956Z,100803.81
2018-11-04T09:30:55.408Z,100804.16
2018-11-04T09:35:53.116Z,100802.44
2018-11-04T09:40:50.366Z,100801.36
2018-11-04T09:46:01.878Z,100796.20
2018-11-04T09:51:02.753Z,100790.03
2018-11-04T09:56:02.531Z,100792.73
2018-11-04T10:01:00.118Z,100786.05
2018-11-04T10:05:57.653Z,100782.08
2018-11-04T10:10:55.108Z,100785.25
2018-11-04T10:15:55.298Z,100772.53
2018-11-04T10:20:53.395Z,100778.81
2018-11-04T10:25:50.391Z,100773.13
2018-11-04T10:30:47.865Z,100772.18
2018-11-04T10:35:45.345Z,100773.19
2018-11-04T10:40:42.780Z,100769.05
2018-11-04T10:45:43.456Z,100764.39
2018-11-04T10:50:40.978Z,100767.98
2018-11-04T10:55:38.489Z,100762.39
2018-11-04T11:00:41.638Z,100761.48
2018-11-04T11:05:39.097Z,100755.91
2018-11-04T11:10:36.573Z,100744.56
2018-11-04T11:15:34.032Z,100749.32
2018-11-04T11:20:31.518Z,100738.45
2018-11-04T11:25:28.953Z,100727.00
2018-11-04T11:30:26.456Z,100718.36
2018-11-04T11:35:23.913Z,100702.83
2018-11-04T11:40:21.408Z,100693.85
2018-11-04T11:45:22.468Z,100696.30
2018-11-04T11:50:19.926Z,100698.05
2018-11-04T11:55:21.269Z,100684.03
2018-11-04T12:00:23.559Z,100680.67
2018-11-04T12:10:29.132Z,100674.58
2018-11-04T12:15:26.661Z,100669.20
2018-11-04T12:20:24.100Z,100665.86
2018-11-04T12:25:21.571Z,100648.48
2018-11-04T12:30:19.090Z,100638.72
2018-11-04T12:35:16.600Z,100635.86
2018-11-04T12:40:14.075Z,100632.84
2018-11-04T12:45:12.485Z,100629.75
2018-11-04T12:50:10.876Z,100617.73
2018-11-04T12:55:09.861Z,100610.54
2018-11-04T13:00:10.617Z,100605.72
2018-11-04T13:05:09.034Z,100605.38
2018-11-04T13:10:08.369Z,100601.11
2018-11-04T13:15:06.558Z,100599.36
2018-11-04T13:20:04.384Z,100598.34
2018-11-04T13:25:01.856Z,100586.89
2018-11-04T13:29:59.332Z,100590.11
2018-11-04T13:34:56.848Z,100577.78
2018-11-04T13:39:54.313Z,100573.53
2018-11-04T13:44:51.824Z,100572.03
2018-11-04T13:49:49.250Z,100559.63
2018-11-04T13:54:47.046Z,100553.34
2018-11-04T13:59:44.515Z,100547.55
2018-11-04T14:04:41.958Z,100545.66
2018-11-04T14:09:39.418Z,100532.43
2018-11-04T14:14:36.872Z,100530.69
2018-11-04T14:19:34.392Z,100529.05
2018-11-04T14:24:31.856Z,100517.91
2018-11-04T14:29:29.301Z,100525.62
2018-11-04T14:34:26.748Z,100516.09
2018-11-04T14:39:24.222Z,100506.30
2018-11-04T14:44:21.687Z,100511.24
2018-11-04T14:49:19.221Z,100515.75
2018-11-04T14:54:17.138Z,100511.41
2018-11-04T14:59:14.633Z,100512.52
2018-11-04T15:04:12.097Z,100508.22
2018-11-04T15:09:09.584Z,100511.45
2018-11-04T15:14:07.064Z,100506.28
2018-11-04T15:19:04.760Z,100498.02
2018-11-04T15:24:02.218Z,100491.33
2018-11-04T15:28:59.658Z,100485.28
2018-11-04T15:33:57.152Z,100479.10
2018-11-04T15:38:54.600Z,100480.13
2018-11-04T15:43:52.145Z,100475.17
2018-11-04T15:48:49.720Z,100461.62
2018-11-04T15:53:47.192Z,100453.89
2018-11-04T15:58:44.631Z,100455.35
2018-11-04T16:03:42.092Z,100451.47
2018-11-04T16:08:39.550Z,100446.29
2018-11-04T16:13:37.012Z,100448.03
2018-11-04T16:18:34.554Z,100445.52
2018-11-04T16:23:32.034Z,100442.28
2018-11-04T16:28:30.332Z,100461.32
2018-11-04T16:33:27.862Z,100461.00
2018-11-04T16:38:25.327Z,100464.75
2018-11-04T16:43:22.850Z,100463.84
2018-11-04T16:48:20.224Z,100462.21
2018-11-04T16:53:17.661Z,100457.36
2018-11-04T16:58:15.141Z,100462.73
2018-11-04T17:03:12.598Z,100463.94
2018-11-04T17:08:10.109Z,100481.77
2018-11-04T17:13:07.580Z,100487.25
2018-11-04T17:18:05.173Z,100483.52
2018-11-04T17:23:02.716Z,100491.94
2018-11-04T17:28:00.213Z,100489.09
2018-11-04T17:32:57.696Z,100482.08
2018-11-04T17:37:55.349Z,100473.07
2018-11-04T17:42:53.029Z,100468.31
2018-11-04T17:47:50.549Z,100458.68
2018-11-04T17:52:48.019Z,100453.00
2018-11-04T17:57:45.535Z,100447.34
2018-11-04T18:02:43.303Z,100433.23
2018-11-04T18:07:41.440Z,100441.24
2018-11-04T18:12:38.865Z,100444.50
2018-11-04T18:17:36.318Z,100442.08
2018-11-04T18:22:34.824Z,100445.02
2018-11-04T18:27:32.273Z,100446.23
2018-11-04T18:32:29.759Z,100447.14
2018-11-04T18:37:27.373Z,100457.06
2018-11-04T18:42:24.942Z,100449.37
2018-11-04T18:47:22.488Z,100445.52
2018-11-04T18:52:19.997Z,100435.08
2018-11-04T18:57:17.541Z,100441.67
2018-11-04T19:02:14.970Z,100434.98
2018-11-04T19:07:12.450Z,100432.03
2018-11-04T19:12:09.944Z,100432.83
2018-11-04T19:17:07.374Z,100433.36
2018-11-04T19:22:04.986Z,100435.19
2018-11-04T19:27:02.521Z,100427.67
2018-11-04T19:31:59.969Z,100410.34
2018-11-04T19:36:57.466Z,100406.70
2018-11-04T19:41:54.921Z,100409.34
2018-11-04T19:46:53.094Z,100411.17
2018-11-04T19:51:50.636Z,100403.37
2018-11-04T19:56:48.161Z,100408.64
2018-11-04T20:01:45.541Z,100397.28
2018-11-04T20:06:45.309Z,100386.47
2018-11-04T20:11:43.413Z,100386.84
2018-11-04T20:16:42.021Z,100392.12
2018-11-04T20:21:39.581Z,100378.95
2018-11-04T20:26:37.001Z,100379.36
2018-11-04T20:31:40.120Z,100379.67
2018-11-04T20:36:37.684Z,100378.46
2018-11-04T20:41:35.180Z,100376.73
2018-11-04T20:46:33.886Z,100378.77
2018-11-04T20:51:31.366Z,100384.25
2018-11-04T20:56:34.320Z,100374.03
2018-11-04T21:01:31.860Z,100369.66
2018-11-04T21:06:29.380Z,100368.94
2018-11-04T21:11:27.090Z,100358.72
2018-11-04T21:16:26.469Z,100357.30
2018-11-04T21:21:24.012Z,100360.76
2018-11-04T21:26:21.775Z,100360.86
2018-11-04T21:31:21.166Z,100354.56
2018-11-04T21:36:21.476Z,100338.87
2018-11-04T21:41:19.109Z,100341.91
2018-11-04T21:46:23.494Z,100333.53
2018-11-04T21:51:21.055Z,100326.64
2018-11-04T21:56:18.506Z,100318.05
2018-11-04T22:01:15.985Z,100310.95
2018-11-04T22:06:13.453Z,100298.41
2018-11-04T22:11:10.896Z,100299.62
2018-11-04T22:16:12.541Z,100305.09
2018-11-04T22:21:10.059Z,100301.22
2018-11-04T22:26:07.567Z,100302.25
2018-11-04T22:31:05.024Z,100294.98
2018-11-04T22:36:02.501Z,100292.73
2018-11-04T22:40:59.975Z,100282.20
2018-11-04T22:46:06.457Z,100273.92
2018-11-04T22:51:03.929Z,100279.50
2018-11-04T22:56:01.417Z,100283.45
2018-11-04T23:00:59.887Z,100275.66
2018-11-04T23:06:01.837Z,100269.25
2018-11-04T23:10:59.286Z,100258.23
2018-11-04T23:16:00.703Z,100247.20
2018-11-04T23:20:58.203Z,100250.14
2018-11-04T23:25:55.651Z,100257.72
2018-11-04T23:30:53.117Z,100258.65
2018-11-04T23:35:50.552Z,100258.74
2018-11-04T23:40:48.150Z,100251.06
2018-11-04T23:45:47.552Z,100247.33
2018-11-04T23:50:50.180Z,100248.84
2018-11-04T23:55:47.606Z,100242.36
